Latest Coastal Weather Observations for Coconut Island

IDQ60701

Issued at 3:21 pm EST Saturday 31 January 2015 (issued every 10 minutes, with the page automatically refreshed every 10 minutes)

About coastal observations | Map of coastal stations | Coastal observations for QLD | Marine services | Other Formats
Station Details ID: 027054 Name: COCONUT ISLAND Lat: -10.05 Lon: 143.07 Height: 3.5 m
Data from the previous 72 hours. | See also: Recent months at Coconut Island
Date/Time
EST
Temp

°C
Wind Pressure Rain
since 9am
mm
Weather Cloud Vis
km
Sea
Height
m
Swell
Dir
 
Speed
knots
Gust
knots
hPa Trend Height
m
Period
s
Dir
31/03:00pm 29.1 WNW 13 19 1006.3 - 0.0 - - - - - - -
31/02:30pm 29.1 NW 15 21 1006.6 - 0.0 - - - - - - -
31/02:00pm 29.0 WNW 13 21 1007.0 - 0.0 - - - - - - -
31/01:30pm 29.2 NW 13 20 1007.5 - 0.0 - - - - - - -
31/01:00pm 28.8 WNW 12 18 1008.1 - 0.0 - - - - - - -
31/12:30pm 29.2 NW 14 19 1008.4 - 0.0 - - - - - - -
31/12:00pm 28.9 NW 15 22 1008.7 - 0.0 - - - - - - -
31/11:30am 28.3 NW 15 21 1009.0 - 0.0 - - - - - - -
31/11:00am 28.2 NW 14 19 1009.3 - 0.0 - - - - - - -
31/10:30am 28.4 NW 14 20 1009.6 - 0.0 - - - - - - -
31/10:00am 28.0 NW 13 19 1009.7 - 0.0 - - - - - - -
31/09:30am 27.4 NW 14 20 1009.5 - 0.0 - - - - - - -
31/09:00am 27.7 NW 13 19 1009.5 - 6.0 - - - - - - -
31/08:30am 27.9 NW 14 21 1009.2 - 6.0 - - - - - - -
31/08:00am 27.1 NW 9 13 1009.0 - 6.0 - - - - - - -
31/07:30am 27.1 NW 8 12 1008.9 - 6.0 - - - - - - -
31/07:00am 26.9 NNW 14 18 1008.7 - 6.0 - - - - - - -
31/06:30am 26.9 NNW 11 14 1008.1 - 6.0 - - - - - - -
31/06:00am 26.7 NW 11 15 1008.0 - 6.0 - - - - - - -
31/05:30am 26.3 NW 9 14 1007.7 - 6.0 - - - - - - -
31/05:00am 26.0 NW 14 20 1007.4 - 6.0 - - - - - - -
31/04:30am 24.9 WNW 8 16 1007.3 - 6.0 - - - - - - -
31/04:00am 27.0 NNW 10 13 1007.2 - 1.8 - - - - - - -
31/03:30am 26.9 NW 11 18 1007.2 - 1.8 - - - - - - -
31/03:00am 27.2 NW 10 16 1007.2 - 1.8 - - - - - - -
31/02:30am 27.6 NW 11 15 1007.4 - 1.8 - - - - - - -
31/02:00am 27.7 WNW 10 15 1007.6 - 1.8 - - - - - - -
31/01:30am 27.9 WNW 10 16 1007.8 - 1.8 - - - - - - -
31/01:00am 27.9 WNW 11 18 1008.2 - 1.8 - - - - - - -
31/12:30am 27.8 NW 11 16 1008.4 - 1.8 - - - - - - -
31/12:00am 27.9 NW 11 16 1008.8 - 1.8 - - - - - - -
 
Date/Time
EST
Temp

°C
Wind Pressure Rain
since 9am
mm
Weather Cloud Vis
km
Sea
Height
m
Swell
Dir
 
Speed
knots
Gust
knots
hPa Trend Height
m
Period
s
Dir
30/11:30pm 27.7 NW 11 15 1009.0 - 1.8 - - - - - - -
30/11:00pm 27.8 NW 13 18 1009.1 - 1.8 - - - - - - -
30/10:30pm 27.8 NW 11 15 1009.1 - 1.8 - - - - - - -
30/10:00pm 27.8 NNW 12 16 1009.1 - 1.8 - - - - - - -
30/09:30pm 28.3 NW 11 17 1008.9 - 1.8 - - - - - - -
30/09:00pm 28.5 WNW 9 15 1008.6 - 1.8 - - - - - - -
30/08:30pm 28.6 WNW 9 15 1008.1 - 1.8 - - - - - - -
30/08:00pm 28.5 WNW 9 17 1007.7 - 1.8 - - - - - - -
30/07:30pm 28.5 WNW 9 16 1007.1 - 1.8 - - - - - - -
30/07:00pm 28.6 WNW 8 13 1006.8 - 1.8 - - - - - - -
30/06:30pm 29.1 WNW 8 13 1006.6 - 1.8 - - - - - - -
30/06:00pm 29.5 WNW 7 12 1006.2 - 1.8 - - - - - - -
30/05:30pm 29.3 WNW 10 17 1005.9 - 1.8 - - - - - - -
30/05:00pm 29.6 WNW 10 17 1005.6 - 1.8 - - - - - - -
30/04:30pm 30.3 WNW 8 14 1005.4 - 1.8 - - - - - - -
30/04:00pm 29.9 WNW 9 15 1005.3 - 1.8 - - - - - - -
30/03:30pm 30.1 WNW 9 17 1005.4 - 1.8 - - - - - - -
30/03:00pm 30.2 WNW 9 14 1005.6 - 1.8 - - - - - - -
30/02:30pm 29.8 WNW 11 18 1005.9 - 1.8 - - - - - - -
30/02:00pm 29.1 WNW 12 19 1006.5 - 1.8 - - - - - - -
30/01:30pm 29.2 WNW 12 20 1006.8 - 1.8 - - - - - - -
30/01:00pm 29.7 WNW 11 17 1007.1 - 1.8 - - - - - - -
30/12:30pm 29.1 NW 11 15 1007.4 - 1.8 - - - - - - -
30/12:00pm 28.6 NW 13 17 1007.7 - 1.8 - - - - - - -
30/11:30am 28.4 NW 13 20 1008.2 - 1.8 - - - - - - -
30/11:00am 27.6 NW 12 18 1008.6 - 1.8 - - - - - - -
30/10:30am 26.5 WNW 13 22 1008.8 - 1.8 - - - - - - -
30/10:00am 25.6 WNW 9 15 1008.5 - 1.8 - - - - - - -
30/09:30am 25.1 WNW 10 16 1008.6 - 1.4 - - - - - - -
30/09:00am 25.3 WNW 12 19 1008.8 - 27.2 Rain - - - - - -
30/08:30am 25.2 WNW 11 19 1008.7 - 26.2 - - - - - - -
30/08:00am 24.6 WNW 11 19 1008.5 - 25.0 - - - - - - -
30/07:30am 26.2 NW 15 23 1008.0 - 23.0 - - - - - - -
30/07:00am 26.6 NW 16 23 1007.6 - 21.8 - - - - - - -
30/06:30am 26.7 NW 15 22 1007.2 - 20.0 - - - - - - -
30/06:00am 26.8 NW 12 18 1006.9 - 19.0 Recent precip. - - - - - -
30/05:30am 26.7 NW 12 19 1006.5 - 19.0 - - - - - - -
30/05:00am 26.6 NW 12 18 1006.3 - 18.2 - - - - - - -
30/04:30am 26.0 NNW 11 14 1006.4 - 17.6 - - - - - - -
30/04:00am 26.4 NNW 14 18 1006.4 - 17.4 - - - - - - -
30/03:30am 26.9 NW 13 18 1006.3 - 17.4 - - - - - - -
30/03:00am 26.8 NW 13 19 1006.2 - 17.4 Recent precip. - - - - - -
30/02:30am 26.6 NW 13 18 1006.3 - 17.4 - - - - - - -
30/02:00am 26.5 NNW 17 20 1006.3 - 17.2 - - - - - - -
30/01:30am 27.0 NNW 12 15 1006.6 - 16.2 - - - - - - -
30/01:00am 26.9 N 10 15 1007.1 - 16.2 - - - - - - -
30/12:30am 26.8 NNW 12 15 1007.3 - 16.2 - - - - - - -
30/12:00am 26.6 NNW 15 20 1007.4 - 16.2 Recent precip. - - - - - -
 
Date/Time
EST
Temp

°C
Wind Pressure Rain
since 9am
mm
Weather Cloud Vis
km
Sea
Height
m
Swell
Dir
 
Speed
knots
Gust
knots
hPa Trend Height
m
Period
s
Dir
29/11:45pm 27.0 NW 15 24 1007.6 - 16.2 - - - - - - -
29/11:30pm 28.6 NW 9 13 1007.6 - 15.4 - - - - - - -
29/11:00pm 28.7 NW 11 16 1007.6 - 15.4 - - - - - - -
29/10:30pm 28.0 WNW 7 12 1007.5 - 15.4 - - - - - - -
29/10:00pm 27.5 WNW 5 9 1007.4 - 15.4 - - - - - - -
29/09:30pm 27.7 WNW 7 11 1007.2 - 15.2 - - - - - - -
29/09:00pm 27.3 WNW 8 13 1006.9 - 15.2 Recent precip. - - - - - -
29/08:30pm 26.3 WNW 8 11 1006.9 - 15.2 - - - - - - -
29/08:00pm 26.7 WNW 12 20 1006.7 - 10.8 - - - - - - -
29/07:30pm 28.1 NW 14 19 1006.1 - 10.4 - - - - - - -
29/07:00pm 27.9 NW 14 21 1005.8 - 10.4 - - - - - - -
29/06:30pm 28.1 NW 14 20 1005.5 - 10.4 - - - - - - -
29/06:00pm 28.0 NW 13 21 1005.3 - 10.4 - - - - - - -
29/05:30pm 28.3 NW 14 20 1004.8 - 10.4 - - - - - - -
29/05:00pm 28.3 NW 13 20 1004.3 - 10.4 - - - - - - -
29/04:30pm 28.5 NNW 11 15 1003.7 - 10.4 - - - - - - -
29/04:00pm 28.8 NW 12 17 1003.7 - 10.4 - - - - - - -
29/03:30pm 28.9 NW 13 19 1003.8 - 10.4 - - - - - - -
29/03:00pm 29.5 WNW 12 19 1004.1 - 10.4 - - - - - - -
29/02:30pm 29.4 NW 11 17 1004.2 - 10.4 - - - - - - -
29/02:00pm 27.2 NW 13 21 1005.0 - 10.4 - - - - - - -
29/01:30pm 29.4 WNW 11 16 1005.5 - 10.2 - - - - - - -
29/01:00pm 28.1 NW 10 15 1005.9 - 10.2 - - - - - - -
29/12:30pm 26.1 NW 16 25 1006.6 - 10.0 - - - - - - -
29/12:00pm 28.7 WNW 11 17 1007.0 - 6.8 Recent precip. - - - - - -
29/11:30am 28.0 NW 11 18 1007.3 - 6.8 - - - - - - -
29/11:00am 26.1 WNW 9 15 1007.5 - 6.0 - - - - - - -
29/10:30am 29.1 NW 10 17 1007.2 - 0.0 - - - - - - -
29/10:00am 28.2 NW 10 15 1007.3 - 0.0 - - - - - - -
29/09:30am 28.3 NW 12 17 1007.3 - 0.0 - - - - - - -
29/09:00am 28.0 NW 11 16 1007.4 - 0.4 - - - - - - -
29/08:30am 27.8 WNW 10 16 1007.2 - 0.4 - - - - - - -
29/08:00am 27.8 NW 12 17 1006.9 - 0.4 - - - - - - -
29/07:30am 27.6 NW 12 18 1006.5 - 0.4 - - - - - - -
29/07:00am 27.2 WNW 8 16 1006.2 - 0.4 - - - - - - -
29/06:30am 27.7 NW 12 18 1006.2 - 0.4 - - - - - - -
29/06:00am 27.4 NNW 14 19 1005.8 - 0.4 - - - - - - -
29/05:30am 27.4 NNW 15 21 1005.2 - 0.4 - - - - - - -
29/05:00am 27.4 NNW 15 19 1005.0 - 0.4 - - - - - - -
29/04:30am 27.3 NNW 14 17 1005.2 - 0.4 - - - - - - -
29/04:00am 27.6 NNW 13 17 1005.0 - 0.4 - - - - - - -
29/03:30am 27.6 NNW 10 13 1004.5 - 0.4 - - - - - - -
29/03:00am 27.5 NNW 11 14 1004.5 - 0.4 - - - - - - -
29/02:30am 27.3 NNW 12 15 1004.5 - 0.4 - - - - - - -
29/02:00am 27.6 NNW 13 17 1004.9 - 0.4 - - - - - - -
29/01:30am 27.8 NNW 11 14 1005.3 - 0.4 - - - - - - -
29/01:00am 27.8 NNW 13 17 1005.8 - 0.4 - - - - - - -
29/12:30am 28.0 NNW 11 16 1006.1 - 0.4 - - - - - - -
29/12:00am 27.7 NNW 12 17 1006.5 - 0.4 - - - - - - -
 
Date/Time
EST
Temp

°C
Wind Pressure Rain
since 9am
mm
Weather Cloud Vis
km
Sea
Height
m
Swell
Dir
 
Speed
knots
Gust
knots
hPa Trend Height
m
Period
s
Dir
28/11:30pm 28.6 NW 11 16 1006.8 - 0.4 - - - - - - -
28/11:00pm 28.7 NW 11 16 1006.8 - 0.4 - - - - - - -
28/10:30pm 28.7 NW 11 16 1006.5 - 0.4 - - - - - - -
28/10:00pm 28.7 NW 11 17 1006.4 - 0.4 - - - - - - -
28/09:30pm 28.8 NW 11 17 1006.1 - 0.4 - - - - - - -
28/09:00pm 28.6 NW 11 16 1006.1 - 0.4 - - - - - - -
28/08:30pm 28.6 NW 10 15 1005.8 - 0.4 - - - - - - -
28/08:00pm 28.5 NW 10 14 1005.2 - 0.4 - - - - - - -
28/07:30pm 28.3 NW 10 16 1004.5 - 0.4 - - - - - - -
28/07:00pm 28.4 NW 11 16 1004.1 - 0.4 - - - - - - -
28/06:30pm 28.2 NW 11 17 1003.7 - 0.4 - - - - - - -
28/06:00pm 27.4 NW 10 15 1003.5 - 0.2 - - - - - - -
28/05:30pm 27.1 NNW 15 20 1003.5 - 0.2 - - - - - - -
28/05:00pm 28.8 WNW 10 15 1003.1 - 0.2 - - - - - - -
28/04:30pm 30.2 WNW 10 17 1002.6 - 0.2 - - - - - - -
28/04:00pm 30.6 WNW 11 20 1002.7 - 0.2 - - - - - - -
28/03:30pm 30.2 NW 12 19 1003.0 - 0.2 - - - - - - -

Other Formats:

Comma delimited format used in spreadsheet applications
http://www.bom.gov.au/fwo/IDQ60701/IDQ60701.94182.axf

JavaScript Object Notation format (JSON) in row-major order
http://www.bom.gov.au/fwo/IDQ60701/IDQ60701.94182.json